sensor_id;sensor_type;location;lat;lon;timestamp;noise_LAeq;noise_LA_min;noise_LA_max;noise_LA01;noise_LA95
49215;Laerm;45943;53.148;8.204;2023-03-31T00:01:26;42.12;38.48;45.90;;
49215;Laerm;45943;53.148;8.204;2023-03-31T00:03:52;41.51;37.92;44.14;;
49215;Laerm;45943;53.148;8.204;2023-03-31T00:06:32;42.06;38.81;44.83;;
49215;Laerm;45943;53.148;8.204;2023-03-31T00:09:07;41.22;37.51;45.14;;
49215;Laerm;45943;53.148;8.204;2023-03-31T00:11:34;41.58;38.12;45.61;;
49215;Laerm;45943;53.148;8.204;2023-03-31T00:14:00;41.86;37.72;45.71;;
49215;Laerm;45943;53.148;8.204;2023-03-31T00:16:26;42.45;38.30;50.86;;
49215;Laerm;45943;53.148;8.204;2023-03-31T00:18:52;48.75;38.81;68.05;;
49215;Laerm;45943;53.148;8.204;2023-03-31T00:21:21;42.54;38.12;58.18;;
49215;Laerm;45943;53.148;8.204;2023-03-31T00:23:52;42.46;37.72;66.52;;
49215;Laerm;45943;53.148;8.204;2023-03-31T00:26:18;42.44;38.92;45.93;;
49215;Laerm;45943;53.148;8.204;2023-03-31T00:28:45;42.51;38.81;45.14;;
49215;Laerm;45943;53.148;8.204;2023-03-31T00:31:11;42.78;39.12;56.50;;
49215;Laerm;45943;53.148;8.204;2023-03-31T00:33:37;41.48;37.29;45.18;;
49215;Laerm;45943;53.148;8.204;2023-03-31T00:36:03;48.30;38.12;67.67;;
49215;Laerm;45943;53.148;8.204;2023-03-31T00:38:31;41.89;37.72;46.75;;
49215;Laerm;45943;53.148;8.204;2023-03-31T00:40:58;41.83;37.72;49.31;;
49215;Laerm;45943;53.148;8.204;2023-03-31T00:43:36;43.66;38.30;63.83;;
49215;Laerm;45943;53.148;8.204;2023-03-31T00:46:15;47.21;38.30;65.82;;
49215;Laerm;45943;53.148;8.204;2023-03-31T00:48:50;41.23;37.51;44.87;;
49215;Laerm;45943;53.148;8.204;2023-03-31T00:51:20;41.99;37.92;45.47;;
49215;Laerm;45943;53.148;8.204;2023-03-31T00:53:52;41.41;37.05;46.02;;
49215;Laerm;45943;53.148;8.204;2023-03-31T00:56:23;41.69;37.51;44.67;;
49215;Laerm;45943;53.148;8.204;2023-03-31T00:58:51;42.23;38.97;45.54;;
49215;Laerm;45943;53.148;8.204;2023-03-31T01:01:21;56.17;38.12;68.57;;
49215;Laerm;45943;53.148;8.204;2023-03-31T01:03:49;42.24;36.26;47.24;;
49215;Laerm;45943;53.148;8.204;2023-03-31T01:06:16;41.78;37.92;46.85;;
49215;Laerm;45943;53.148;8.204;2023-03-31T01:08:46;41.16;37.51;45.77;;
49215;Laerm;45943;53.148;8.204;2023-03-31T01:11:17;40.99;36.54;46.53;;
49215;Laerm;45943;53.148;8.204;2023-03-31T01:13:43;41.66;37.72;44.87;;
49215;Laerm;45943;53.148;8.204;2023-03-31T01:16:12;43.01;38.81;45.93;;
49215;Laerm;45943;53.148;8.204;2023-03-31T01:18:39;43.48;39.41;47.60;;
49215;Laerm;45943;53.148;8.204;2023-03-31T01:21:43;43.90;40.18;45.93;;
49215;Laerm;45943;53.148;8.204;2023-03-31T01:24:49;44.04;40.73;45.96;;
49215;Laerm;45943;53.148;8.204;2023-03-31T01:34:04;46.59;40.30;64.50;;
49215;Laerm;45943;53.148;8.204;2023-03-31T01:42:43;43.83;40.63;57.73;;
49215;Laerm;45943;53.148;8.204;2023-03-31T01:45:53;42.94;39.81;47.74;;
49215;Laerm;45943;53.148;8.204;2023-03-31T01:48:31;42.42;39.27;48.37;;
49215;Laerm;45943;53.148;8.204;2023-03-31T01:51:01;42.24;38.30;58.12;;
49215;Laerm;45943;53.148;8.204;2023-03-31T01:56:35;44.72;39.41;64.88;;
49215;Laerm;45943;53.148;8.204;2023-03-31T02:04:12;58.22;38.48;87.60;;
49215;Laerm;45943;53.148;8.204;2023-03-31T02:06:43;48.69;38.97;65.29;;
49215;Laerm;45943;53.148;8.204;2023-03-31T02:09:16;41.34;37.72;47.49;;
49215;Laerm;45943;53.148;8.204;2023-03-31T02:11:44;45.86;38.12;62.43;;
49215;Laerm;45943;53.148;8.204;2023-03-31T02:14:14;52.17;40.41;70.37;;
49215;Laerm;45943;53.148;8.204;2023-03-31T02:16:45;42.58;39.81;46.08;;
49215;Laerm;45943;53.148;8.204;2023-03-31T02:19:15;42.98;39.94;45.36;;
49215;Laerm;45943;53.148;8.204;2023-03-31T02:21:46;43.18;40.06;52.10;;
49215;Laerm;45943;53.148;8.204;2023-03-31T02:24:16;42.47;38.97;45.40;;
49215;Laerm;45943;53.148;8.204;2023-03-31T02:27:01;42.64;39.41;45.77;;
49215;Laerm;45943;53.148;8.204;2023-03-31T02:29:29;48.11;40.18;67.63;;
49215;Laerm;45943;53.148;8.204;2023-03-31T02:32:01;42.58;39.55;45.14;;
49215;Laerm;45943;53.148;8.204;2023-03-31T02:34:28;42.08;39.41;45.14;;
49215;Laerm;45943;53.148;8.204;2023-03-31T02:36:54;44.08;39.68;54.50;;
49215;Laerm;45943;53.148;8.204;2023-03-31T02:39:24;47.35;39.55;65.63;;
49215;Laerm;45943;53.148;8.204;2023-03-31T02:41:52;43.79;39.27;58.33;;
49215;Laerm;45943;53.148;8.204;2023-03-31T02:44:19;44.72;40.52;59.09;;
49215;Laerm;45943;53.148;8.204;2023-03-31T02:46:46;44.17;40.18;57.22;;
49215;Laerm;45943;53.148;8.204;2023-03-31T02:49:14;44.34;39.81;59.81;;
49215;Laerm;45943;53.148;8.204;2023-03-31T02:51:54;45.00;41.13;58.74;;
49215;Laerm;45943;53.148;8.204;2023-03-31T03:03:24;44.85;38.97;60.32;;
49215;Laerm;45943;53.148;8.204;2023-03-31T03:06:10;49.66;40.73;69.55;;
49215;Laerm;45943;53.148;8.204;2023-03-31T03:11:25;45.50;41.31;58.51;;
49215;Laerm;45943;53.148;8.204;2023-03-31T03:13:59;44.14;40.83;56.29;;
49215;Laerm;45943;53.148;8.204;2023-03-31T03:16:43;44.95;41.22;57.48;;
49215;Laerm;45943;53.148;8.204;2023-03-31T03:19:18;45.22;41.40;59.53;;
49215;Laerm;45943;53.148;8.204;2023-03-31T03:21:44;64.93;41.22;79.71;;
49215;Laerm;45943;53.148;8.204;2023-03-31T03:24:14;44.87;40.41;58.68;;
49215;Laerm;45943;53.148;8.204;2023-03-31T03:26:40;44.89;41.13;58.62;;
49215;Laerm;45943;53.148;8.204;2023-03-31T03:29:06;44.64;41.31;57.25;;
49215;Laerm;45943;53.148;8.204;2023-03-31T03:31:32;47.70;41.74;59.08;;
49215;Laerm;45943;53.148;8.204;2023-03-31T03:33:59;49.47;40.83;67.09;;
49215;Laerm;45943;53.148;8.204;2023-03-31T03:36:25;49.35;42.35;66.10;;
49215;Laerm;45943;53.148;8.204;2023-03-31T03:38:51;58.71;42.13;77.27;;
49215;Laerm;45943;53.148;8.204;2023-03-31T03:41:17;46.62;41.82;60.64;;
49215;Laerm;45943;53.148;8.204;2023-03-31T03:43:43;48.15;42.21;65.95;;
49215;Laerm;45943;53.148;8.204;2023-03-31T03:46:09;45.55;42.06;58.79;;
49215;Laerm;45943;53.148;8.204;2023-03-31T03:48:35;46.87;41.90;62.36;;
49215;Laerm;45943;53.148;8.204;2023-03-31T03:51:01;44.92;42.28;55.32;;
49215;Laerm;45943;53.148;8.204;2023-03-31T03:53:28;45.48;42.06;58.08;;
49215;Laerm;45943;53.148;8.204;2023-03-31T03:55:54;49.78;42.13;69.22;;
49215;Laerm;45943;53.148;8.204;2023-03-31T03:58:20;49.54;42.42;67.52;;
49215;Laerm;45943;53.148;8.204;2023-03-31T04:00:46;45.55;42.42;58.36;;
49215;Laerm;45943;53.148;8.204;2023-03-31T04:03:12;50.38;42.63;66.87;;
49215;Laerm;45943;53.148;8.204;2023-03-31T04:05:39;45.31;41.74;57.51;;
49215;Laerm;45943;53.148;8.204;2023-03-31T04:08:05;47.10;41.90;57.36;;
49215;Laerm;45943;53.148;8.204;2023-03-31T04:10:33;54.20;43.19;65.55;;
49215;Laerm;45943;53.148;8.204;2023-03-31T04:13:00;49.80;42.95;64.93;;
49215;Laerm;45943;53.148;8.204;2023-03-31T04:15:26;49.17;42.63;60.69;;
49215;Laerm;45943;53.148;8.204;2023-03-31T04:17:52;51.86;43.19;64.89;;
49215;Laerm;45943;53.148;8.204;2023-03-31T04:20:19;55.34;43.18;69.64;;
49215;Laerm;45943;53.148;8.204;2023-03-31T04:22:46;58.35;43.19;76.93;;
49215;Laerm;45943;53.148;8.204;2023-03-31T04:25:15;55.41;43.89;71.37;;
49215;Laerm;45943;53.148;8.204;2023-03-31T04:27:47;57.08;42.95;76.59;;
49215;Laerm;45943;53.148;8.204;2023-03-31T04:30:21;53.94;43.19;70.46;;
49215;Laerm;45943;53.148;8.204;2023-03-31T04:32:51;51.17;42.95;65.91;;
49215;Laerm;45943;53.148;8.204;2023-03-31T04:35:18;50.57;42.82;65.50;;
49215;Laerm;45943;53.148;8.204;2023-03-31T04:37:49;54.01;43.07;71.28;;
49215;Laerm;45943;53.148;8.204;2023-03-31T04:40:17;55.20;43.36;68.78;;
49215;Laerm;45943;53.148;8.204;2023-03-31T04:42:43;55.61;43.42;73.87;;
49215;Laerm;45943;53.148;8.204;2023-03-31T04:45:11;61.98;43.19;74.17;;
49215;Laerm;45943;53.148;8.204;2023-03-31T04:47:37;51.30;42.84;65.17;;
49215;Laerm;45943;53.148;8.204;2023-03-31T04:50:04;49.99;43.01;62.92;;
49215;Laerm;45943;53.148;8.204;2023-03-31T04:52:30;54.77;42.63;69.65;;
49215;Laerm;45943;53.148;8.204;2023-03-31T04:54:56;51.67;42.49;68.12;;
49215;Laerm;45943;53.148;8.204;2023-03-31T04:57:22;52.12;42.95;65.90;;
49215;Laerm;45943;53.148;8.204;2023-03-31T04:59:48;54.51;42.95;67.84;;
49215;Laerm;45943;53.148;8.204;2023-03-31T05:02:14;49.92;42.66;61.99;;
49215;Laerm;45943;53.148;8.204;2023-03-31T05:04:51;53.79;43.19;69.83;;
49215;Laerm;45943;53.148;8.204;2023-03-31T05:07:17;57.98;43.19;80.46;;
49215;Laerm;45943;53.148;8.204;2023-03-31T05:09:44;59.56;43.19;76.15;;
49215;Laerm;45943;53.148;8.204;2023-03-31T05:12:10;56.30;43.25;69.25;;
49215;Laerm;45943;53.148;8.204;2023-03-31T05:14:36;52.59;42.79;67.90;;
49215;Laerm;45943;53.148;8.204;2023-03-31T05:17:02;57.49;43.19;73.59;;
49215;Laerm;45943;53.148;8.204;2023-03-31T05:19:28;60.40;43.31;72.76;;
49215;Laerm;45943;53.148;8.204;2023-03-31T05:21:54;57.71;43.31;70.35;;
49215;Laerm;45943;53.148;8.204;2023-03-31T05:24:20;53.31;42.89;72.74;;
49215;Laerm;45943;53.148;8.204;2023-03-31T05:26:46;49.87;43.25;67.07;;
49215;Laerm;45943;53.148;8.204;2023-03-31T05:29:18;56.41;43.19;71.54;;
49215;Laerm;45943;53.148;8.204;2023-03-31T05:31:44;50.75;43.01;68.17;;
49215;Laerm;45943;53.148;8.204;2023-03-31T05:34:10;51.98;43.36;68.02;;
49215;Laerm;45943;53.148;8.204;2023-03-31T05:36:36;53.71;44.09;68.84;;
49215;Laerm;45943;53.148;8.204;2023-03-31T05:39:04;59.92;44.09;77.20;;
49215;Laerm;45943;53.148;8.204;2023-03-31T05:41:31;53.22;43.53;72.51;;
49215;Laerm;45943;53.148;8.204;2023-03-31T05:43:57;54.44;44.23;69.96;;
49215;Laerm;45943;53.148;8.204;2023-03-31T05:46:23;58.18;44.50;72.99;;
49215;Laerm;45943;53.148;8.204;2023-03-31T05:48:49;56.29;44.28;70.69;;
49215;Laerm;45943;53.148;8.204;2023-03-31T05:51:15;54.98;43.94;68.74;;
49215;Laerm;45943;53.148;8.204;2023-03-31T05:53:41;55.90;43.42;71.73;;
49215;Laerm;45943;53.148;8.204;2023-03-31T05:56:07;58.45;43.94;72.86;;
49215;Laerm;45943;53.148;8.204;2023-03-31T05:58:34;56.43;44.04;70.37;;
49215;Laerm;45943;53.148;8.204;2023-03-31T06:01:23;56.22;43.48;72.03;;
49215;Laerm;45943;53.148;8.204;2023-03-31T06:03:49;58.06;43.99;70.66;;
49215;Laerm;45943;53.148;8.204;2023-03-31T06:06:16;60.58;43.19;71.69;;
49215;Laerm;45943;53.148;8.204;2023-03-31T06:08:43;57.61;44.04;69.48;;
49215;Laerm;45943;53.148;8.204;2023-03-31T06:11:11;55.50;43.50;69.57;;
49215;Laerm;45943;53.148;8.204;2023-03-31T06:13:38;54.15;43.36;68.87;;
49215;Laerm;45943;53.148;8.204;2023-03-31T06:16:05;54.67;42.63;71.09;;
49215;Laerm;45943;53.148;8.204;2023-03-31T06:18:33;54.08;43.42;70.45;;
49215;Laerm;45943;53.148;8.204;2023-03-31T06:21:00;56.85;43.13;70.80;;
49215;Laerm;45943;53.148;8.204;2023-03-31T06:23:27;60.63;44.99;74.60;;
49215;Laerm;45943;53.148;8.204;2023-03-31T06:25:53;59.01;43.79;73.18;;
49215;Laerm;45943;53.148;8.204;2023-03-31T06:28:20;58.86;43.65;74.67;;
49215;Laerm;45943;53.148;8.204;2023-03-31T06:30:46;59.73;44.50;71.25;;
49215;Laerm;45943;53.148;8.204;2023-03-31T06:33:12;68.67;44.50;87.94;;
49215;Laerm;45943;53.148;8.204;2023-03-31T06:35:39;65.63;44.23;78.49;;
49215;Laerm;45943;53.148;8.204;2023-03-31T06:38:06;56.77;43.31;72.77;;
49215;Laerm;45943;53.148;8.204;2023-03-31T06:40:32;58.63;43.69;71.77;;
49215;Laerm;45943;53.148;8.204;2023-03-31T06:42:58;57.77;43.13;71.87;;
49215;Laerm;45943;53.148;8.204;2023-03-31T06:45:25;55.39;43.55;72.47;;
49215;Laerm;45943;53.148;8.204;2023-03-31T06:47:51;56.76;42.89;72.50;;
49215;Laerm;45943;53.148;8.204;2023-03-31T06:50:17;55.91;43.07;72.82;;
49215;Laerm;45943;53.148;8.204;2023-03-31T06:52:43;57.46;43.36;69.45;;
49215;Laerm;45943;53.148;8.204;2023-03-31T06:55:09;58.46;42.56;74.00;;
49215;Laerm;45943;53.148;8.204;2023-03-31T06:57:35;60.36;43.31;76.66;;
49215;Laerm;45943;53.148;8.204;2023-03-31T07:00:02;56.55;42.95;74.72;;
49215;Laerm;45943;53.148;8.204;2023-03-31T07:02:29;56.07;42.95;75.28;;
49215;Laerm;45943;53.148;8.204;2023-03-31T07:04:55;57.45;43.36;73.66;;
49215;Laerm;45943;53.148;8.204;2023-03-31T07:07:21;58.87;42.82;73.08;;
49215;Laerm;45943;53.148;8.204;2023-03-31T07:09:47;56.86;42.63;72.79;;
49215;Laerm;45943;53.148;8.204;2023-03-31T07:12:13;45.51;42.35;52.79;;
49215;Laerm;45943;53.148;8.204;2023-03-31T07:14:39;55.27;42.35;69.20;;
49215;Laerm;45943;53.148;8.204;2023-03-31T07:17:05;58.19;43.42;71.81;;
49215;Laerm;45943;53.148;8.204;2023-03-31T07:19:31;57.36;42.95;71.08;;
49215;Laerm;45943;53.148;8.204;2023-03-31T07:21:57;58.87;42.56;73.18;;
49215;Laerm;45943;53.148;8.204;2023-03-31T07:24:23;55.89;43.07;70.80;;
49215;Laerm;45943;53.148;8.204;2023-03-31T07:26:49;60.78;43.19;73.51;;
49215;Laerm;45943;53.148;8.204;2023-03-31T07:29:15;54.44;41.66;71.54;;
49215;Laerm;45943;53.148;8.204;2023-03-31T07:31:41;54.34;42.42;72.66;;
49215;Laerm;45943;53.148;8.204;2023-03-31T07:34:07;53.18;42.69;67.08;;
49215;Laerm;45943;53.148;8.204;2023-03-31T07:36:33;56.31;42.35;72.59;;
49215;Laerm;45943;53.148;8.204;2023-03-31T07:38:59;55.05;43.25;69.76;;
49215;Laerm;45943;53.148;8.204;2023-03-31T07:41:25;59.27;43.25;73.05;;
49215;Laerm;45943;53.148;8.204;2023-03-31T07:43:51;52.88;42.89;69.49;;
49215;Laerm;45943;53.148;8.204;2023-03-31T07:46:18;58.92;42.89;72.03;;
49215;Laerm;45943;53.148;8.204;2023-03-31T07:48:45;54.79;43.19;70.20;;
49215;Laerm;45943;53.148;8.204;2023-03-31T07:51:14;53.10;43.31;67.52;;
49215;Laerm;45943;53.148;8.204;2023-03-31T07:53:41;52.10;43.07;68.22;;
49215;Laerm;45943;53.148;8.204;2023-03-31T07:56:07;59.65;43.25;76.09;;
49215;Laerm;45943;53.148;8.204;2023-03-31T07:58:33;55.55;42.95;72.71;;
49215;Laerm;45943;53.148;8.204;2023-03-31T08:00:59;58.75;43.79;72.27;;
49215;Laerm;45943;53.148;8.204;2023-03-31T08:03:25;63.70;44.23;76.62;;
49215;Laerm;45943;53.148;8.204;2023-03-31T08:05:52;58.35;43.84;72.03;;
49215;Laerm;45943;53.148;8.204;2023-03-31T08:08:19;59.67;42.35;74.68;;
49215;Laerm;45943;53.148;8.204;2023-03-31T08:10:47;53.25;41.74;68.27;;
49215;Laerm;45943;53.148;8.204;2023-03-31T08:13:13;56.81;42.76;75.55;;
49215;Laerm;45943;53.148;8.204;2023-03-31T08:15:38;55.69;42.28;69.08;;
49215;Laerm;45943;53.148;8.204;2023-03-31T08:18:04;57.60;42.69;72.12;;
49215;Laerm;45943;53.148;8.204;2023-03-31T08:20:31;56.39;42.28;70.87;;
49215;Laerm;45943;53.148;8.204;2023-03-31T08:22:57;63.02;43.07;77.81;;
49215;Laerm;45943;53.148;8.204;2023-03-31T08:25:23;60.87;42.63;69.44;;
49215;Laerm;45943;53.148;8.204;2023-03-31T08:27:49;57.57;42.28;71.49;;
49215;Laerm;45943;53.148;8.204;2023-03-31T08:30:17;57.22;43.58;71.16;;
49215;Laerm;45943;53.148;8.204;2023-03-31T08:32:43;54.44;42.56;69.08;;
49215;Laerm;45943;53.148;8.204;2023-03-31T08:35:09;59.86;42.76;77.96;;
49215;Laerm;45943;53.148;8.204;2023-03-31T08:37:36;56.89;43.36;71.13;;
49215;Laerm;45943;53.148;8.204;2023-03-31T08:40:04;56.33;43.19;70.87;;
49215;Laerm;45943;53.148;8.204;2023-03-31T08:42:37;60.47;44.50;74.97;;
49215;Laerm;45943;53.148;8.204;2023-03-31T08:47:35;56.82;43.94;71.29;;
49215;Laerm;45943;53.148;8.204;2023-03-31T08:50:12;55.69;44.32;72.88;;
49215;Laerm;45943;53.148;8.204;2023-03-31T08:52:44;52.76;43.36;70.52;;
49215;Laerm;45943;53.148;8.204;2023-03-31T08:55:23;58.33;43.36;71.31;;
49215;Laerm;45943;53.148;8.204;2023-03-31T08:58:13;59.89;43.19;71.74;;
49215;Laerm;45943;53.148;8.204;2023-03-31T09:00:50;50.70;42.28;66.86;;
49215;Laerm;45943;53.148;8.204;2023-03-31T09:03:40;58.03;43.01;74.19;;
49215;Laerm;45943;53.148;8.204;2023-03-31T09:06:14;55.96;42.95;70.94;;
49215;Laerm;45943;53.148;8.204;2023-03-31T09:08:41;62.95;44.37;83.21;;
49215;Laerm;45943;53.148;8.204;2023-03-31T09:11:12;78.14;44.14;102.18;;
49215;Laerm;45943;53.148;8.204;2023-03-31T09:13:57;56.91;43.19;74.38;;
49215;Laerm;45943;53.148;8.204;2023-03-31T09:16:34;55.32;43.94;70.79;;
49215;Laerm;45943;53.148;8.204;2023-03-31T09:19:02;58.16;44.41;72.87;;
49215;Laerm;45943;53.148;8.204;2023-03-31T09:21:34;56.09;43.25;71.92;;
49215;Laerm;45943;53.148;8.204;2023-03-31T09:24:19;58.76;42.89;75.70;;
49215;Laerm;45943;53.148;8.204;2023-03-31T09:26:52;51.39;43.45;67.70;;
49215;Laerm;45943;53.148;8.204;2023-03-31T09:29:31;54.77;43.31;70.53;;
49215;Laerm;45943;53.148;8.204;2023-03-31T09:32:28;57.46;43.31;70.75;;
49215;Laerm;45943;53.148;8.204;2023-03-31T09:35:12;59.92;43.69;73.75;;
49215;Laerm;45943;53.148;8.204;2023-03-31T09:37:39;57.32;44.18;72.11;;
49215;Laerm;45943;53.148;8.204;2023-03-31T09:40:05;60.49;42.42;78.15;;
49215;Laerm;45943;53.148;8.204;2023-03-31T09:42:37;58.95;44.14;71.34;;
49215;Laerm;45943;53.148;8.204;2023-03-31T09:45:03;56.95;43.25;71.09;;
49215;Laerm;45943;53.148;8.204;2023-03-31T09:47:38;57.31;42.28;70.92;;
49215;Laerm;45943;53.148;8.204;2023-03-31T09:50:08;58.07;42.82;70.26;;
49215;Laerm;45943;53.148;8.204;2023-03-31T09:53:10;58.16;43.48;70.36;;
49215;Laerm;45943;53.148;8.204;2023-03-31T09:55:54;54.25;42.35;69.12;;
49215;Laerm;45943;53.148;8.204;2023-03-31T09:58:21;55.59;42.28;73.93;;
49215;Laerm;45943;53.148;8.204;2023-03-31T10:01:04;52.57;42.95;69.15;;
49215;Laerm;45943;53.148;8.204;2023-03-31T10:03:31;58.33;43.74;71.57;;
49215;Laerm;45943;53.148;8.204;2023-03-31T10:06:08;58.29;43.48;73.00;;
49215;Laerm;45943;53.148;8.204;2023-03-31T10:11:08;55.12;43.31;73.32;;
49215;Laerm;45943;53.148;8.204;2023-03-31T10:14:04;58.53;44.46;71.96;;
49215;Laerm;45943;53.148;8.204;2023-03-31T10:16:33;56.82;43.53;71.19;;
49215;Laerm;45943;53.148;8.204;2023-03-31T10:22:00;59.34;43.42;76.06;;
49215;Laerm;45943;53.148;8.204;2023-03-31T10:24:36;59.70;43.84;75.61;;
49215;Laerm;45943;53.148;8.204;2023-03-31T10:27:04;56.61;43.19;69.23;;
49215;Laerm;45943;53.148;8.204;2023-03-31T10:29:33;55.14;42.89;71.06;;
49215;Laerm;45943;53.148;8.204;2023-03-31T10:32:04;57.93;42.63;71.26;;
49215;Laerm;45943;53.148;8.204;2023-03-31T10:34:38;57.39;42.42;73.25;;
49215;Laerm;45943;53.148;8.204;2023-03-31T10:37:06;58.36;44.14;75.35;;
49215;Laerm;45943;53.148;8.204;2023-03-31T10:39:35;58.10;43.53;70.40;;
49215;Laerm;45943;53.148;8.204;2023-03-31T10:42:01;55.27;42.95;71.25;;
49215;Laerm;45943;53.148;8.204;2023-03-31T10:44:45;63.62;43.79;74.41;;
49215;Laerm;45943;53.148;8.204;2023-03-31T10:49:42;56.98;43.58;70.94;;
49215;Laerm;45943;53.148;8.204;2023-03-31T10:52:19;54.19;42.76;72.47;;
49215;Laerm;45943;53.148;8.204;2023-03-31T10:54:48;58.97;42.89;71.15;;
49215;Laerm;45943;53.148;8.204;2023-03-31T10:57:14;59.03;42.89;76.70;;
49215;Laerm;45943;53.148;8.204;2023-03-31T11:00:08;57.12;43.36;71.22;;
49215;Laerm;45943;53.148;8.204;2023-03-31T11:05:48;63.43;45.54;76.74;;
49215;Laerm;45943;53.148;8.204;2023-03-31T11:08:58;57.21;43.36;72.97;;
49215;Laerm;45943;53.148;8.204;2023-03-31T11:11:54;56.48;42.21;71.03;;
49215;Laerm;45943;53.148;8.204;2023-03-31T11:14:55;62.72;43.64;74.50;;
49215;Laerm;45943;53.148;8.204;2023-03-31T11:17:34;58.50;43.25;73.36;;
49215;Laerm;45943;53.148;8.204;2023-03-31T11:22:58;55.44;42.49;69.64;;
49215;Laerm;45943;53.148;8.204;2023-03-31T11:25:35;57.00;43.48;70.42;;
49215;Laerm;45943;53.148;8.204;2023-03-31T11:37:02;56.47;43.19;73.40;;
49215;Laerm;45943;53.148;8.204;2023-03-31T11:40:34;59.01;43.64;75.10;;
49215;Laerm;45943;53.148;8.204;2023-03-31T11:42:47;59.09;46.17;71.58;;
49215;Laerm;45943;53.148;8.204;2023-03-31T11:45:30;59.73;46.54;74.22;;
49215;Laerm;45943;53.148;8.204;2023-03-31T11:48:01;59.85;48.04;74.26;;
49215;Laerm;45943;53.148;8.204;2023-03-31T11:50:32;63.07;48.28;74.17;;
49215;Laerm;45943;53.148;8.204;2023-03-31T11:53:16;62.29;51.81;76.59;;
49215;Laerm;45943;53.148;8.204;2023-03-31T11:55:46;59.02;48.68;74.13;;
49215;Laerm;45943;53.148;8.204;2023-03-31T11:58:22;61.22;47.42;78.21;;
49215;Laerm;45943;53.148;8.204;2023-03-31T12:00:57;61.91;45.64;79.68;;
49215;Laerm;45943;53.148;8.204;2023-03-31T12:03:46;56.95;43.74;70.85;;
49215;Laerm;45943;53.148;8.204;2023-03-31T12:06:18;60.11;43.79;74.12;;
49215;Laerm;45943;53.148;8.204;2023-03-31T12:11:26;58.43;43.13;75.34;;
49215;Laerm;45943;53.148;8.204;2023-03-31T12:16:36;54.67;43.07;76.90;;
49215;Laerm;45943;53.148;8.204;2023-03-31T12:19:12;61.59;47.38;74.76;;
49215;Laerm;45943;53.148;8.204;2023-03-31T12:21:46;58.16;47.03;70.56;;
49215;Laerm;45943;53.148;8.204;2023-03-31T12:24:13;58.99;45.64;73.06;;
49215;Laerm;45943;53.148;8.204;2023-03-31T12:27:10;59.95;45.61;79.23;;
49215;Laerm;45943;53.148;8.204;2023-03-31T12:29:44;60.02;44.76;74.61;;
49215;Laerm;45943;53.148;8.204;2023-03-31T12:32:17;57.88;44.28;72.94;;
49215;Laerm;45943;53.148;8.204;2023-03-31T12:41:00;59.24;43.69;76.68;;
49215;Laerm;45943;53.148;8.204;2023-03-31T12:59:43;53.99;42.42;67.91;;
49215;Laerm;45943;53.148;8.204;2023-03-31T13:02:20;54.85;43.07;71.13;;
49215;Laerm;45943;53.148;8.204;2023-03-31T13:04:46;56.54;43.42;71.16;;
49215;Laerm;45943;53.148;8.204;2023-03-31T13:09:56;57.79;43.01;71.48;;
49215;Laerm;45943;53.148;8.204;2023-03-31T13:12:24;55.37;42.69;69.52;;
49215;Laerm;45943;53.148;8.204;2023-03-31T13:14:54;53.71;43.25;67.74;;
49215;Laerm;45943;53.148;8.204;2023-03-31T13:17:30;55.69;42.42;70.41;;
49215;Laerm;45943;53.148;8.204;2023-03-31T13:20:16;54.62;41.39;68.81;;
49215;Laerm;45943;53.148;8.204;2023-03-31T13:22:59;56.77;41.49;71.58;;
49215;Laerm;45943;53.148;8.204;2023-03-31T13:27:57;53.37;42.35;69.43;;
49215;Laerm;45943;53.148;8.204;2023-03-31T13:33:23;62.57;43.19;80.46;;
49215;Laerm;45943;53.148;8.204;2023-03-31T13:36:14;57.30;42.95;73.38;;
49215;Laerm;45943;53.148;8.204;2023-03-31T13:45:08;54.43;40.63;68.10;;
49215;Laerm;45943;53.148;8.204;2023-03-31T13:48:14;54.69;42.13;70.57;;
49215;Laerm;45943;53.148;8.204;2023-03-31T13:50:55;55.04;42.76;68.53;;
49215;Laerm;45943;53.148;8.204;2023-03-31T13:56:25;56.33;41.98;72.61;;
49215;Laerm;45943;53.148;8.204;2023-03-31T14:02:26;55.89;42.69;68.85;;
49215;Laerm;45943;53.148;8.204;2023-03-31T14:05:20;56.19;43.58;70.54;;
49215;Laerm;45943;53.148;8.204;2023-03-31T14:07:53;53.63;42.95;67.01;;
49215;Laerm;45943;53.148;8.204;2023-03-31T14:10:31;58.09;43.58;72.77;;
49215;Laerm;45943;53.148;8.204;2023-03-31T14:15:37;51.65;43.42;66.79;;
49215;Laerm;45943;53.148;8.204;2023-03-31T14:18:04;53.05;43.31;69.38;;
49215;Laerm;45943;53.148;8.204;2023-03-31T14:23:39;57.66;42.89;68.24;;
49215;Laerm;45943;53.148;8.204;2023-03-31T14:26:13;55.90;42.49;69.24;;
49215;Laerm;45943;53.148;8.204;2023-03-31T14:29:32;56.05;42.49;70.87;;
49215;Laerm;45943;53.148;8.204;2023-03-31T14:32:16;54.82;42.06;68.25;;
49215;Laerm;45943;53.148;8.204;2023-03-31T14:37:19;54.83;46.43;67.52;;
49215;Laerm;45943;53.148;8.204;2023-03-31T14:39:50;55.10;46.62;69.10;;
49215;Laerm;45943;53.148;8.204;2023-03-31T14:42:20;62.11;46.70;70.53;;
49215;Laerm;45943;53.148;8.204;2023-03-31T14:44:57;56.94;43.13;71.10;;
49215;Laerm;45943;53.148;8.204;2023-03-31T14:47:27;55.15;42.56;69.48;;
49215;Laerm;45943;53.148;8.204;2023-03-31T14:50:04;55.60;43.48;69.51;;
49215;Laerm;45943;53.148;8.204;2023-03-31T14:52:32;54.72;42.56;68.84;;
49215;Laerm;45943;53.148;8.204;2023-03-31T14:54:59;51.97;42.13;67.52;;
49215;Laerm;45943;53.148;8.204;2023-03-31T14:57:37;56.44;42.06;72.12;;
49215;Laerm;45943;53.148;8.204;2023-03-31T15:00:06;55.59;42.56;70.43;;
49215;Laerm;45943;53.148;8.204;2023-03-31T15:02:35;52.53;42.76;67.15;;
49215;Laerm;45943;53.148;8.204;2023-03-31T15:05:08;47.21;41.82;61.15;;
49215;Laerm;45943;53.148;8.204;2023-03-31T15:07:40;54.03;42.41;69.89;;
49215;Laerm;45943;53.148;8.204;2023-03-31T15:10:06;54.93;42.06;73.92;;
49215;Laerm;45943;53.148;8.204;2023-03-31T15:12:33;53.27;41.23;67.26;;
49215;Laerm;45943;53.148;8.204;2023-03-31T15:15:03;57.58;40.93;76.24;;
49215;Laerm;45943;53.148;8.204;2023-03-31T15:17:37;53.64;41.13;74.13;;
49215;Laerm;45943;53.148;8.204;2023-03-31T15:20:25;51.44;39.68;67.00;;
49215;Laerm;45943;53.148;8.204;2023-03-31T15:22:54;59.28;42.56;75.51;;
49215;Laerm;45943;53.148;8.204;2023-03-31T15:25:28;54.61;40.06;71.26;;
49215;Laerm;45943;53.148;8.204;2023-03-31T15:28:06;50.21;40.52;64.61;;
49215;Laerm;45943;53.148;8.204;2023-03-31T15:30:33;50.34;40.41;65.87;;
49215;Laerm;45943;53.148;8.204;2023-03-31T15:32:59;51.05;41.31;65.50;;
49215;Laerm;45943;53.148;8.204;2023-03-31T15:35:33;58.04;42.56;69.72;;
49215;Laerm;45943;53.148;8.204;2023-03-31T15:38:03;54.45;41.13;70.63;;
49215;Laerm;45943;53.148;8.204;2023-03-31T15:40:40;57.78;41.66;73.13;;
49215;Laerm;45943;53.148;8.204;2023-03-31T15:43:17;49.91;40.83;63.76;;
49215;Laerm;45943;53.148;8.204;2023-03-31T15:45:55;52.08;41.31;68.56;;
49215;Laerm;45943;53.148;8.204;2023-03-31T15:48:28;54.71;41.58;68.58;;
49215;Laerm;45943;53.148;8.204;2023-03-31T15:51:24;57.01;41.49;71.81;;
49215;Laerm;45943;53.148;8.204;2023-03-31T15:53:52;79.25;41.31;106.87;;
49215;Laerm;45943;53.148;8.204;2023-03-31T15:58:57;50.26;40.63;67.41;;
49215;Laerm;45943;53.148;8.204;2023-03-31T16:01:28;55.68;42.82;66.67;;
49215;Laerm;45943;53.148;8.204;2023-03-31T16:03:57;54.68;41.82;66.23;;
49215;Laerm;45943;53.148;8.204;2023-03-31T16:06:33;54.76;41.13;68.05;;